KQMP/QMP METAR and TAF weather

Enter ICAO airport designator
Station Type Date Time Source
KQMP METAR 2017/12/02 21:55 UTC NOAA

KQMP 022155Z AUTO 02002KT 10SM SCT014 BKN026 11/07 A3015 RMK A02 SLP212 WND DATA ESTMD SLP EMSTD T01050068


Station Type Date Time Source
KQMP Decoded METAR 2017/12/02 21:55 UTC NOAA

Station name not available
Dec 02, 2017 - 04:55 PM EST / 2017.12.02 2155 UTC
Wind: from the NNE (020 degrees) at 2 MPH (2 KT):0
Visibility: 10 mile(s):0
Sky conditions: mostly cloudy
Temperature: 50.9 F (10.5 C)
Dew Point: 44.2 F (6.8 C)
Relative Humidity: 77%
Pressure (altimeter): 30.15 in. Hg (1020 hPa)
ob: KQMP 022155Z AUTO 02002KT 10SM SCT014 BKN026 11/07 A3015 RMK A02 SLP212 WND DATA ESTMD SLP EMSTD T01050068
cycle: 22

Station Type Date Time Source
KQMP TAF UTC NOAA

Error!


Example: see airport list